Time;durP1;ratioP1;P1;durP2;ratioP2;P2;SDS_P1;SDS_P2;PMS_P1;PMS_P2;Temp;Humidity;BMP_temperature;BMP_pressure;BME280_temperature;BME280_humidity;BME280_pressure;Samples;Min_cycle;Max_cycle;Signal;HPM_P1;HPM_P2
2023/12/31 05:02:28;;;;;;;3.08;1.52;;;6.50;99.90;;;;;;5020077;23;20239;-70
2023/12/31 05:04:55;;;;;;;0.80;0.80;;;6.50;99.90;;;;;;4949972;28;20240;-71
2023/12/31 05:07:22;;;;;;;0.95;0.95;;;6.50;99.90;;;;;;4948983;29;20213;-70
2023/12/31 05:09:48;;;;;;;1.75;1.65;;;6.50;99.90;;;;;;4952838;28;20526;-71
2023/12/31 05:12:15;;;;;;;1.10;1.10;;;6.50;99.90;;;;;;4956344;28;20232;-72
2023/12/31 05:14:42;;;;;;;0.82;0.82;;;6.60;99.90;;;;;;4946937;28;20240;-71
2023/12/31 05:17:08;;;;;;;0.50;0.50;;;6.60;99.90;;;;;;4940413;29;20220;-71
2023/12/31 05:19:36;;;;;;;2.53;1.48;;;6.60;99.90;;;;;;4946395;29;20212;-72
2023/12/31 05:22:03;;;;;;;11.43;0.82;;;6.60;99.90;;;;;;4952725;28;20251;-72
2023/12/31 05:24:30;;;;;;;2.92;1.08;;;6.60;99.90;;;;;;4952311;28;20624;-71
2023/12/31 05:26:57;;;;;;;1.20;1.10;;;6.60;99.90;;;;;;4952257;28;20216;-72
2023/12/31 05:29:23;;;;;;;2.45;1.05;;;6.60;99.90;;;;;;4949638;28;20730;-72
2023/12/31 05:31:50;;;;;;;2.60;1.40;;;6.60;99.90;;;;;;4948154;28;20239;-72
2023/12/31 05:34:17;;;;;;;0.93;0.93;;;6.60;99.90;;;;;;4945271;29;20209;-71
2023/12/31 05:36:45;;;;;;;0.60;0.60;;;6.60;99.90;;;;;;4944892;28;20216;-71
2023/12/31 05:39:12;;;;;;;1.15;0.85;;;6.60;99.90;;;;;;4947672;29;20574;-71
2023/12/31 05:41:39;;;;;;;0.40;0.40;;;6.60;99.90;;;;;;4948898;28;20311;-71
2023/12/31 05:44:05;;;;;;;1.48;1.00;;;6.60;99.90;;;;;;4950210;29;20233;-71
2023/12/31 05:46:32;;;;;;;1.25;1.05;;;6.60;99.90;;;;;;4947726;28;20217;-72
2023/12/31 05:48:59;;;;;;;3.70;1.40;;;6.60;99.90;;;;;;4944871;29;20217;-72
2023/12/31 05:51:25;;;;;;;1.27;1.20;;;6.60;99.90;;;;;;4948329;28;20239;-70
2023/12/31 05:53:54;;;;;;;1.60;1.60;;;6.60;99.90;;;;;;4935761;28;20710;-71
2023/12/31 05:56:20;;;;;;;0.85;0.85;;;6.50;99.90;;;;;;4943984;29;20209;-72
2023/12/31 05:58:48;;;;;;;1.80;0.50;;;6.50;99.90;;;;;;4949791;28;20690;-72
2023/12/31 06:01:16;;;;;;;1.27;0.95;;;6.50;99.90;;;;;;4943403;29;20758;-71
2023/12/31 06:03:43;;;;;;;1.17;1.17;;;6.50;99.90;;;;;;4946889;28;20665;-70
2023/12/31 06:06:09;;;;;;;2.40;1.75;;;6.50;99.90;;;;;;4946334;29;20213;-72
2023/12/31 06:08:36;;;;;;;2.83;0.93;;;6.50;99.90;;;;;;4938970;29;20221;-71
2023/12/31 06:11:04;;;;;;;0.90;0.90;;;6.50;99.90;;;;;;4938767;29;20237;-71
2023/12/31 06:13:31;;;;;;;1.38;1.20;;;6.50;99.90;;;;;;4951795;28;20216;-72
2023/12/31 06:15:58;;;;;;;0.80;0.80;;;6.50;99.90;;;;;;4949713;28;20214;-73
2023/12/31 06:18:24;;;;;;;1.00;1.00;;;6.50;99.90;;;;;;4950362;28;20221;-73
2023/12/31 06:20:51;;;;;;;4.35;1.35;;;6.40;99.90;;;;;;4945463;28;20240;-70
2023/12/31 06:23:18;;;;;;;2.25;1.40;;;6.40;99.90;;;;;;4949798;29;20216;-73
2023/12/31 06:25:44;;;;;;;0.90;0.90;;;6.40;99.90;;;;;;4943947;28;20237;-71
2023/12/31 06:28:13;;;;;;;2.60;1.00;;;6.30;99.90;;;;;;4945039;28;20217;-71
2023/12/31 06:30:40;;;;;;;2.35;1.33;;;6.30;99.90;;;;;;4944328;28;20232;-72
2023/12/31 06:33:07;;;;;;;0.70;0.70;;;6.30;99.90;;;;;;4943132;29;20213;-72
2023/12/31 06:35:33;;;;;;;0.90;0.90;;;6.30;99.90;;;;;;4944915;28;20205;-71
2023/12/31 06:38:00;;;;;;;1.55;1.55;;;6.20;99.90;;;;;;4950317;28;20212;-72
2023/12/31 06:40:27;;;;;;;1.02;1.02;;;6.20;99.90;;;;;;4951775;28;20220;-73
2023/12/31 06:42:53;;;;;;;1.85;1.55;;;6.20;99.90;;;;;;4950833;28;20223;-71
2023/12/31 06:45:21;;;;;;;2.67;1.67;;;6.20;99.90;;;;;;4948144;29;20235;-72
2023/12/31 06:47:48;;;;;;;1.75;1.67;;;6.10;99.90;;;;;;4951321;28;20218;-73
2023/12/31 06:50:15;;;;;;;9.20;1.83;;;6.10;99.90;;;;;;4944485;28;20212;-72
2023/12/31 06:52:42;;;;;;;1.85;1.55;;;6.10;99.90;;;;;;4943638;28;20215;-71
2023/12/31 06:55:11;;;;;;;1.95;1.13;;;6.10;99.90;;;;;;4948527;28;20680;-72
2023/12/31 06:57:38;;;;;;;0.93;0.93;;;6.00;99.90;;;;;;4948607;28;20228;-72
2023/12/31 07:00:07;;;;;;;0.50;0.50;;;6.00;99.90;;;;;;4946692;29;20220;-70
2023/12/31 07:02:37;;;;;;;2.47;1.60;;;6.00;99.90;;;;;;4948156;29;20314;-73
2023/12/31 07:05:04;;;;;;;1.20;1.08;;;6.00;99.90;;;;;;4951258;29;20237;-71
2023/12/31 07:07:32;;;;;;;0.80;0.80;;;6.00;99.90;;;;;;4950220;28;20283;-70
2023/12/31 07:09:59;;;;;;;0.65;0.65;;;6.00;99.90;;;;;;4946404;29;21041;-71
2023/12/31 07:12:25;;;;;;;4.20;1.70;;;5.90;99.90;;;;;;4946539;29;20232;-72
2023/12/31 07:14:52;;;;;;;9.38;1.30;;;5.90;99.90;;;;;;4947476;28;20235;-71
2023/12/31 07:17:19;;;;;;;0.55;0.55;;;5.90;99.90;;;;;;4947013;29;20559;-72
2023/12/31 07:19:47;;;;;;;1.45;1.40;;;5.90;99.90;;;;;;4946469;28;20215;-71
2023/12/31 07:22:14;;;;;;;1.20;1.20;;;5.90;99.90;;;;;;4949736;28;20240;-71
2023/12/31 07:24:41;;;;;;;4.10;1.50;;;5.80;99.90;;;;;;4947604;28;20634;-70
2023/12/31 07:27:09;;;;;;;0.88;0.88;;;5.80;99.90;;;;;;4944843;29;20698;-72
2023/12/31 07:29:35;;;;;;;2.05;1.95;;;5.80;99.90;;;;;;4939954;29;20208;-71
2023/12/31 07:32:02;;;;;;;0.88;0.88;;;5.80;99.90;;;;;;4942994;29;20781;-72
2023/12/31 07:34:28;;;;;;;2.08;0.60;;;5.80;99.90;;;;;;4947007;28;20203;-71
2023/12/31 07:36:56;;;;;;;1.40;1.40;;;5.80;99.90;;;;;;4944112;28;20217;-71
2023/12/31 07:39:25;;;;;;;2.75;0.77;;;5.80;99.90;;;;;;4939332;29;20787;-71
2023/12/31 07:41:52;;;;;;;1.85;1.48;;;5.80;99.90;;;;;;4942271;29;20242;-71
2023/12/31 07:44:19;;;;;;;7.90;1.58;;;5.80;99.90;;;;;;4945587;28;20644;-71
2023/12/31 07:46:46;;;;;;;1.58;1.58;;;5.80;99.90;;;;;;4950068;28;20211;-71
2023/12/31 07:49:13;;;;;;;0.70;0.70;;;5.80;99.90;;;;;;4951143;28;20596;-70
2023/12/31 07:51:39;;;;;;;1.10;1.08;;;5.80;99.90;;;;;;4951404;28;20338;-70
2023/12/31 07:54:07;;;;;;;0.50;0.50;;;5.80;99.90;;;;;;4949778;28;20208;-70
2023/12/31 07:56:34;;;;;;;1.55;1.45;;;5.80;99.90;;;;;;4950612;28;20593;-70
2023/12/31 07:59:01;;;;;;;1.50;1.40;;;5.80;99.90;;;;;;4941436;28;20268;-70
2023/12/31 08:01:27;;;;;;;1.80;1.70;;;5.80;99.90;;;;;;4941322;28;20634;-70
2023/12/31 08:03:54;;;;;;;0.95;0.95;;;5.80;99.90;;;;;;4944473;29;20212;-69
2023/12/31 08:06:21;;;;;;;0.65;0.65;;;5.80;99.90;;;;;;4939808;28;20223;-70
2023/12/31 08:08:48;;;;;;;1.60;1.60;;;5.80;99.90;;;;;;4941151;28;20208;-70
2023/12/31 08:11:18;;;;;;;3.33;1.60;;;5.80;99.90;;;;;;4944617;29;20312;-70
2023/12/31 08:13:45;;;;;;;1.70;1.63;;;5.90;99.90;;;;;;4946669;29;20235;-70
2023/12/31 08:16:12;;;;;;;4.90;1.48;;;5.90;99.90;;;;;;4944429;28;20556;-70
2023/12/31 08:18:39;;;;;;;0.65;0.65;;;5.90;99.90;;;;;;4949057;28;20208;-70
2023/12/31 08:21:06;;;;;;;1.95;1.27;;;5.90;99.90;;;;;;4950721;28;20231;-69
2023/12/31 08:23:32;;;;;;;1.70;1.65;;;5.90;99.90;;;;;;4946773;28;20293;-70
2023/12/31 08:25:59;;;;;;;6.68;2.22;;;5.90;99.90;;;;;;4948648;28;20233;-70
2023/12/31 08:28:27;;;;;;;1.67;1.58;;;5.90;99.90;;;;;;4947635;29;20208;-70
2023/12/31 08:30:54;;;;;;;2.38;1.77;;;6.00;99.90;;;;;;4948838;28;20236;-69
2023/12/31 08:33:21;;;;;;;1.85;1.35;;;6.00;99.90;;;;;;4943842;29;20547;-69
2023/12/31 08:35:48;;;;;;;0.98;0.98;;;6.00;99.90;;;;;;4951950;28;20215;-70
2023/12/31 08:38:14;;;;;;;1.40;1.40;;;6.00;99.90;;;;;;4950128;29;20243;-71
2023/12/31 08:40:41;;;;;;;2.92;1.08;;;6.00;99.90;;;;;;4948029;28;20314;-71
2023/12/31 08:43:08;;;;;;;2.42;1.25;;;6.10;99.90;;;;;;4942445;28;20239;-70
2023/12/31 08:45:39;;;;;;;1.23;1.23;;;6.10;99.90;;;;;;4945323;28;20225;-71
2023/12/31 08:48:07;;;;;;;4.30;1.20;;;6.10;99.90;;;;;;4945279;28;20224;-71
2023/12/31 08:50:33;;;;;;;1.15;1.05;;;6.20;99.90;;;;;;4947250;28;20314;-70
2023/12/31 08:53:00;;;;;;;1.35;1.23;;;6.20;99.90;;;;;;4942213;28;20532;-70
2023/12/31 08:55:27;;;;;;;2.60;1.58;;;6.30;99.90;;;;;;4944077;28;20212;-70
2023/12/31 08:57:53;;;;;;;1.73;0.88;;;6.30;99.90;;;;;;4938206;29;20224;-70
2023/12/31 09:00:20;;;;;;;1.05;1.05;;;6.40;99.90;;;;;;4944294;29;20220;-70
2023/12/31 09:02:48;;;;;;;3.22;1.45;;;6.40;99.90;;;;;;4941679;29;20210;-70
2023/12/31 09:05:15;;;;;;;9.00;1.90;;;6.50;99.90;;;;;;4942493;29;20601;-70
2023/12/31 09:07:42;;;;;;;1.30;1.30;;;6.50;99.90;;;;;;4946669;28;20228;-70
2023/12/31 09:10:09;;;;;;;0.95;0.75;;;6.50;99.90;;;;;;4942030;28;20653;-70
2023/12/31 09:12:36;;;;;;;0.85;0.85;;;6.60;99.90;;;;;;4946758;28;20304;-71
2023/12/31 09:15:04;;;;;;;1.05;1.05;;;6.60;99.90;;;;;;4942876;28;20268;-69
2023/12/31 09:17:31;;;;;;;2.58;1.52;;;6.60;99.90;;;;;;4945405;29;20227;-70
2023/12/31 09:19:59;;;;;;;1.83;1.75;;;6.60;99.90;;;;;;4947395;28;20218;-70
2023/12/31 09:22:26;;;;;;;1.02;1.02;;;6.70;99.90;;;;;;4945694;28;20651;-70
2023/12/31 09:24:53;;;;;;;2.65;1.05;;;6.70;99.90;;;;;;4943448;28;20299;-71
2023/12/31 09:27:20;;;;;;;1.58;1.48;;;6.70;99.90;;;;;;4947624;29;20212;-71
2023/12/31 09:29:46;;;;;;;2.30;1.15;;;6.80;99.90;;;;;;4944029;28;20567;-71
2023/12/31 09:32:13;;;;;;;2.38;2.25;;;6.80;99.90;;;;;;4939268;28;20237;-70
2023/12/31 09:34:40;;;;;;;1.20;1.20;;;6.80;99.90;;;;;;4943902;28;20243;-70
2023/12/31 09:37:08;;;;;;;0.93;0.93;;;6.80;99.90;;;;;;4945319;29;20228;-70
2023/12/31 09:39:35;;;;;;;1.15;1.15;;;6.80;99.90;;;;;;4939989;28;20213;-70
2023/12/31 09:42:13;;;;;;;0.88;0.88;;;6.80;99.90;;;;;;4946042;28;20237;-70
2023/12/31 09:44:42;;;;;;;1.48;1.48;;;6.90;99.90;;;;;;4946794;28;20652;-69
2023/12/31 09:47:11;;;;;;;1.65;1.25;;;6.90;99.90;;;;;;4945020;28;20657;-69
2023/12/31 09:49:38;;;;;;;1.30;1.30;;;6.90;99.90;;;;;;4943370;28;20659;-71
2023/12/31 09:52:07;;;;;;;2.28;1.63;;;6.90;99.90;;;;;;4944604;28;20232;-71
2023/12/31 09:54:37;;;;;;;3.22;3.03;;;7.00;99.90;;;;;;4949636;28;20636;-71
2023/12/31 09:57:06;;;;;;;0.43;0.30;;;7.00;99.90;;;;;;4947174;28;20220;-69
2023/12/31 09:59:32;;;;;;;0.70;0.70;;;7.00;99.90;;;;;;4946857;28;20210;-68
2023/12/31 10:02:02;;;;;;;1.65;1.50;;;7.00;99.90;;;;;;4942995;28;20241;-69
2023/12/31 10:04:28;;;;;;;0.80;0.80;;;7.10;99.90;;;;;;4941351;29;20220;-69
2023/12/31 10:06:56;;;;;;;1.10;1.10;;;7.10;99.90;;;;;;4942200;28;20225;-69
2023/12/31 10:09:28;;;;;;;1.35;1.35;;;7.10;99.90;;;;;;4941439;28;20206;-70
2023/12/31 10:11:56;;;;;;;1.23;1.23;;;7.10;99.90;;;;;;4937289;28;20238;-70
2023/12/31 10:14:25;;;;;;;1.30;1.05;;;7.10;99.90;;;;;;4939131;29;20560;-69
2023/12/31 10:16:52;;;;;;;1.20;1.20;;;7.10;99.90;;;;;;4944794;28;20582;-70
2023/12/31 10:19:19;;;;;;;1.55;1.42;;;7.10;99.90;;;;;;4950205;28;20209;-70
2023/12/31 10:21:46;;;;;;;5.07;1.65;;;7.10;99.90;;;;;;4945850;28;20230;-70
2023/12/31 10:24:12;;;;;;;0.85;0.73;;;7.10;99.90;;;;;;4945395;28;20210;-70
2023/12/31 10:26:39;;;;;;;1.10;1.10;;;7.00;99.90;;;;;;4947743;28;20229;-70
2023/12/31 10:29:08;;;;;;;1.00;1.00;;;7.00;99.90;;;;;;4945609;28;20204;-70
2023/12/31 10:31:34;;;;;;;1.35;1.35;;;7.10;99.90;;;;;;4938849;28;20253;-71
2023/12/31 10:34:15;;;;;;;1.80;0.88;;;7.00;99.90;;;;;;4945592;28;20216;-72
2023/12/31 10:36:43;;;;;;;4.03;0.70;;;7.00;99.90;;;;;;4947901;28;20209;-71
2023/12/31 10:39:11;;;;;;;0.82;0.82;;;7.00;99.90;;;;;;4948019;29;20216;-71
2023/12/31 10:41:38;;;;;;;1.00;0.95;;;7.00;99.90;;;;;;4950208;28;20288;-71
2023/12/31 10:44:12;;;;;;;0.68;0.50;;;7.00;99.90;;;;;;4952208;28;20216;-71
2023/12/31 10:46:42;;;;;;;2.05;1.35;;;7.00;99.90;;;;;;4943814;28;20247;-72
2023/12/31 10:49:11;;;;;;;0.77;0.77;;;7.00;99.90;;;;;;4949719;28;20213;-70
2023/12/31 10:51:41;;;;;;;0.40;0.40;;;7.00;99.90;;;;;;4947240;28;20251;-71
2023/12/31 10:54:12;;;;;;;1.00;1.00;;;7.00;99.90;;;;;;4943876;29;20201;-72
2023/12/31 10:56:42;;;;;;;1.00;1.00;;;7.00;99.90;;;;;;4947411;29;20208;-72
2023/12/31 10:59:13;;;;;;;1.58;1.48;;;7.00;99.90;;;;;;4943426;28;20208;-71
2023/12/31 11:01:41;;;;;;;1.58;1.48;;;7.00;99.90;;;;;;4945168;29;20236;-73
2023/12/31 11:04:10;;;;;;;1.58;1.48;;;7.00;99.90;;;;;;4944009;28;20208;-72
2023/12/31 11:06:38;;;;;;;1.83;1.20;;;7.00;99.90;;;;;;4948735;29;20236;-72
2023/12/31 11:09:06;;;;;;;0.50;0.50;;;6.90;99.90;;;;;;4947556;28;20251;-71
2023/12/31 11:11:33;;;;;;;1.40;1.30;;;6.90;99.90;;;;;;4951658;28;20225;-71
2023/12/31 11:14:02;;;;;;;0.60;0.60;;;6.80;99.90;;;;;;4961283;28;20239;-72
2023/12/31 11:16:51;;;;;;;1.20;1.17;;;6.80;99.90;;;;;;4948141;29;20204;-72
2023/12/31 11:19:52;;;;;;;1.20;0.75;;;6.80;99.90;;;;;;4945144;28;20679;-73
2023/12/31 11:22:36;;;;;;;0.70;0.63;;;6.80;99.90;;;;;;4948612;28;20228;-71
2023/12/31 11:25:04;;;;;;;0.85;0.85;;;6.80;99.90;;;;;;4941818;28;20218;-73
2023/12/31 11:27:33;;;;;;;0.85;0.85;;;6.80;99.90;;;;;;4946742;28;20220;-71
2023/12/31 11:30:01;;;;;;;1.48;1.33;;;6.80;99.90;;;;;;4943892;29;20349;-71
2023/12/31 11:32:29;;;;;;;1.20;1.02;;;6.90;99.90;;;;;;4945429;28;20229;-71
2023/12/31 11:34:56;;;;;;;2.38;1.25;;;6.90;99.90;;;;;;4941170;29;20276;-70
2023/12/31 11:37:23;;;;;;;1.23;0.60;;;6.90;99.90;;;;;;4949351;28;20205;-71
2023/12/31 11:39:54;;;;;;;0.85;0.85;;;7.00;99.90;;;;;;4939075;28;20246;-70
2023/12/31 11:42:22;;;;;;;1.27;1.27;;;7.00;99.90;;;;;;4939512;29;20266;-70
2023/12/31 11:44:49;;;;;;;2.05;1.95;;;7.00;99.90;;;;;;4948495;28;20205;-72
2023/12/31 11:47:21;;;;;;;0.85;0.85;;;7.10;99.90;;;;;;4942488;28;20236;-70
2023/12/31 11:49:52;;;;;;;1.73;1.65;;;7.10;99.90;;;;;;4941827;29;20260;-70
2023/12/31 11:52:20;;;;;;;0.70;0.70;;;7.10;99.90;;;;;;4940829;29;20477;-71
2023/12/31 11:54:47;;;;;;;2.15;0.55;;;7.10;99.90;;;;;;4950551;28;20288;-70
2023/12/31 11:57:17;;;;;;;0.57;0.57;;;7.20;99.90;;;;;;4948658;28;20213;-70
2023/12/31 11:59:45;;;;;;;3.50;1.35;;;7.20;99.90;;;;;;4949467;28;20209;-70
2023/12/31 12:02:12;;;;;;;0.52;0.50;;;7.20;99.90;;;;;;4949287;29;20714;-70
2023/12/31 12:04:39;;;;;;;0.90;0.90;;;7.10;99.90;;;;;;4952176;28;20358;-72
2023/12/31 12:07:07;;;;;;;1.60;1.50;;;7.20;99.90;;;;;;4948286;28;20233;-71
2023/12/31 12:09:36;;;;;;;0.60;0.60;;;7.20;99.90;;;;;;4954324;28;20206;-71
2023/12/31 12:12:05;;;;;;;2.20;2.05;;;7.20;99.90;;;;;;4950786;28;20221;-71
2023/12/31 12:14:32;;;;;;;2.38;2.17;;;7.30;99.90;;;;;;4950727;28;20312;-72
2023/12/31 12:17:01;;;;;;;0.40;0.40;;;7.30;99.90;;;;;;4954342;28;20206;-72
2023/12/31 12:19:28;;;;;;;1.70;1.60;;;7.30;99.90;;;;;;4953513;28;20578;-72
2023/12/31 12:21:57;;;;;;;2.15;2.10;;;7.40;99.90;;;;;;4952141;29;20233;-71
2023/12/31 12:24:25;;;;;;;2.35;2.20;;;7.40;99.90;;;;;;4952845;29;20265;-72
2023/12/31 12:26:53;;;;;;;1.70;1.60;;;7.50;99.90;;;;;;4953336;28;20622;-71
2023/12/31 12:29:21;;;;;;;1.08;1.08;;;7.60;99.90;;;;;;4950863;28;20209;-72
2023/12/31 12:31:49;;;;;;;4.40;1.55;;;7.60;99.90;;;;;;4949595;28;20680;-72
2023/12/31 12:34:18;;;;;;;1.50;1.50;;;7.70;99.90;;;;;;4945419;29;20224;-72
2023/12/31 12:36:47;;;;;;;11.68;7.63;;;7.70;99.90;;;;;;4947315;28;20209;-72
2023/12/31 12:39:14;;;;;;;5.68;5.00;;;7.70;99.90;;;;;;4949415;28;20214;-71
2023/12/31 12:41:48;;;;;;;3.42;2.58;;;7.80;99.90;;;;;;4953004;28;20597;-71
2023/12/31 12:44:15;;;;;;;2.88;2.67;;;7.80;99.90;;;;;;4950221;28;20212;-72
2023/12/31 12:46:43;;;;;;;1.27;1.25;;;7.90;99.90;;;;;;4947420;28;20225;-71
2023/12/31 12:49:11;;;;;;;4.10;3.72;;;7.90;99.90;;;;;;4950271;29;20592;-72
2023/12/31 12:51:38;;;;;;;1.77;1.67;;;8.00;99.90;;;;;;4941793;29;20539;-72
2023/12/31 12:54:06;;;;;;;2.03;1.92;;;8.00;99.90;;;;;;4944054;29;20465;-72
2023/12/31 12:56:33;;;;;;;2.72;2.15;;;8.10;99.90;;;;;;4949209;28;20198;-72
2023/12/31 12:59:03;;;;;;;2.10;2.00;;;8.10;99.90;;;;;;4942364;29;20212;-71
2023/12/31 13:01:30;;;;;;;0.50;0.50;;;8.10;99.90;;;;;;4948427;28;20249;-71
2023/12/31 13:03:57;;;;;;;1.40;1.40;;;8.00;99.90;;;;;;4953407;28;20216;-71
2023/12/31 13:06:23;;;;;;;1.30;1.30;;;8.00;99.90;;;;;;4950311;28;20717;-71
2023/12/31 13:08:50;;;;;;;1.13;1.13;;;8.00;99.90;;;;;;4953404;28;20684;-71
2023/12/31 13:11:17;;;;;;;1.77;0.65;;;8.00;99.90;;;;;;4953241;28;20300;-72
2023/12/31 13:13:45;;;;;;;1.85;1.65;;;8.00;99.90;;;;;;4953933;28;20293;-71
2023/12/31 13:16:13;;;;;;;1.08;1.08;;;8.00;99.90;;;;;;4950197;28;20210;-71
2023/12/31 13:18:40;;;;;;;1.20;1.20;;;8.00;99.90;;;;;;4951576;28;20225;-73
2023/12/31 13:21:07;;;;;;;1.35;1.30;;;8.00;99.90;;;;;;4953480;28;20300;-72
2023/12/31 13:23:33;;;;;;;1.70;1.60;;;8.00;99.90;;;;;;4953972;28;20211;-72
2023/12/31 13:26:00;;;;;;;1.42;1.05;;;8.00;99.90;;;;;;4952968;28;20225;-72
2023/12/31 13:28:27;;;;;;;2.58;1.88;;;8.00;99.90;;;;;;4954071;28;20567;-72
2023/12/31 13:30:54;;;;;;;1.52;1.52;;;7.90;99.90;;;;;;4952842;28;20305;-72
2023/12/31 13:33:24;;;;;;;1.80;1.63;;;7.90;99.90;;;;;;4946137;29;20260;-72
2023/12/31 13:35:51;;;;;;;1.55;1.55;;;7.90;99.90;;;;;;4952751;28;20213;-70
2023/12/31 13:38:20;;;;;;;2.35;1.52;;;7.90;99.90;;;;;;4952617;28;20220;-70
2023/12/31 13:40:47;;;;;;;2.88;1.63;;;8.00;99.90;;;;;;4951318;29;20225;-70
2023/12/31 13:43:14;;;;;;;2.25;2.15;;;8.00;99.90;;;;;;4943115;29;20513;-70
2023/12/31 13:45:41;;;;;;;6.07;1.55;;;8.00;99.90;;;;;;4934373;29;20319;-71
2023/12/31 13:48:08;;;;;;;2.28;2.08;;;8.00;99.90;;;;;;4937421;29;20212;-71
2023/12/31 13:50:36;;;;;;;1.55;1.50;;;7.90;99.90;;;;;;4942874;28;20683;-71
2023/12/31 13:53:03;;;;;;;1.98;1.92;;;7.90;99.90;;;;;;4939196;28;20297;-71
2023/12/31 13:55:30;;;;;;;1.58;1.33;;;7.90;99.90;;;;;;4939986;29;20213;-71
2023/12/31 13:57:56;;;;;;;1.60;1.50;;;7.90;99.90;;;;;;4941246;29;20217;-71
2023/12/31 14:00:23;;;;;;;1.30;1.30;;;7.80;99.90;;;;;;4933816;29;20202;-71
2023/12/31 14:02:50;;;;;;;0.55;0.55;;;7.80;99.90;;;;;;4939930;29;20596;-71
2023/12/31 14:05:17;;;;;;;1.48;1.48;;;7.80;99.90;;;;;;4934823;28;20216;-71
2023/12/31 14:07:45;;;;;;;1.48;1.48;;;7.80;99.90;;;;;;4936038;28;20251;-71
2023/12/31 14:10:12;;;;;;;1.45;1.45;;;7.80;99.90;;;;;;4949033;28;20209;-71
2023/12/31 14:12:39;;;;;;;0.45;0.45;;;7.80;99.90;;;;;;4937134;28;20220;-71
2023/12/31 14:15:07;;;;;;;1.15;1.15;;;7.80;99.90;;;;;;4938942;29;20668;-71
2023/12/31 14:17:33;;;;;;;2.03;1.88;;;7.80;99.90;;;;;;4938898;29;20578;-70
2023/12/31 14:20:00;;;;;;;1.52;1.42;;;7.70;99.90;;;;;;4933630;29;20220;-71
2023/12/31 14:22:27;;;;;;;1.55;1.45;;;7.70;99.90;;;;;;4939840;28;20244;-71
2023/12/31 14:24:55;;;;;;;1.00;1.00;;;7.80;99.90;;;;;;4944746;28;20526;-72
2023/12/31 14:27:22;;;;;;;1.95;1.85;;;7.80;99.90;;;;;;4942355;28;20619;-72
2023/12/31 14:29:49;;;;;;;2.58;2.47;;;7.80;99.90;;;;;;4935293;29;20210;-71
2023/12/31 14:32:16;;;;;;;1.48;1.20;;;7.80;99.90;;;;;;4940909;29;20247;-71
2023/12/31 14:34:42;;;;;;;1.80;1.60;;;7.80;99.90;;;;;;4939094;28;20228;-71
2023/12/31 14:37:10;;;;;;;1.95;1.85;;;7.80;99.90;;;;;;4942954;29;20213;-71
2023/12/31 14:39:36;;;;;;;2.70;1.70;;;7.80;99.90;;;;;;4942625;28;20268;-71
2023/12/31 14:42:05;;;;;;;2.47;2.15;;;7.80;99.90;;;;;;4937528;28;20252;-71
2023/12/31 14:44:31;;;;;;;2.33;1.50;;;7.80;99.90;;;;;;4942692;29;20221;-71
2023/12/31 14:46:58;;;;;;;1.48;1.35;;;7.80;99.90;;;;;;4934132;29;20679;-71
2023/12/31 14:49:25;;;;;;;3.28;1.63;;;7.80;99.90;;;;;;4938566;29;20206;-71
2023/12/31 14:51:52;;;;;;;1.42;1.30;;;7.80;99.90;;;;;;4937685;29;20229;-71
2023/12/31 14:54:18;;;;;;;2.40;2.20;;;7.80;99.90;;;;;;4938482;28;20668;-71
2023/12/31 14:56:45;;;;;;;1.63;1.50;;;7.90;99.90;;;;;;4936762;29;20265;-71
2023/12/31 14:59:14;;;;;;;1.50;1.50;;;7.90;99.90;;;;;;4943251;29;20700;-71
2023/12/31 15:01:41;;;;;;;1.90;1.90;;;7.90;99.90;;;;;;4941648;29;20539;-71
2023/12/31 15:04:08;;;;;;;1.85;1.42;;;7.80;99.90;;;;;;4947643;28;20672;-71
2023/12/31 15:06:36;;;;;;;1.50;1.50;;;7.90;99.90;;;;;;4938042;29;20255;-71
2023/12/31 15:09:05;;;;;;;1.27;1.08;;;7.90;99.90;;;;;;4937575;29;20528;-72
2023/12/31 15:11:33;;;;;;;1.48;1.48;;;7.90;99.90;;;;;;4936191;28;20244;-71
2023/12/31 15:14:00;;;;;;;3.20;1.40;;;7.90;99.90;;;;;;4940691;28;20672;-71
2023/12/31 15:16:28;;;;;;;1.55;1.48;;;7.90;99.90;;;;;;4934508;29;20305;-71
2023/12/31 15:18:54;;;;;;;1.90;1.77;;;7.90;99.90;;;;;;4938166;29;20646;-71
2023/12/31 15:21:21;;;;;;;2.58;2.28;;;7.90;99.90;;;;;;4937924;29;20229;-72
2023/12/31 15:23:48;;;;;;;2.70;2.60;;;7.90;99.90;;;;;;4938574;29;20265;-71
2023/12/31 15:26:14;;;;;;;1.85;1.85;;;7.80;99.90;;;;;;4937649;29;20221;-72
2023/12/31 15:28:41;;;;;;;2.85;2.75;;;7.90;99.90;;;;;;4949994;29;20213;-71
2023/12/31 15:31:08;;;;;;;1.23;1.23;;;7.90;99.90;;;;;;4949703;28;20247;-71
2023/12/31 15:33:37;;;;;;;6.30;2.60;;;7.90;99.90;;;;;;4939796;28;20707;-71
2023/12/31 15:36:05;;;;;;;1.58;1.58;;;7.90;99.90;;;;;;4941291;29;20205;-71
2023/12/31 15:38:31;;;;;;;2.90;2.80;;;7.90;99.90;;;;;;4940962;29;20720;-72
2023/12/31 15:40:58;;;;;;;4.95;3.35;;;7.90;99.90;;;;;;4938347;29;20233;-72
2023/12/31 15:43:25;;;;;;;8.07;7.18;;;7.90;99.90;;;;;;4948459;28;20206;-71
2023/12/31 15:45:52;;;;;;;3.20;2.97;;;7.90;99.90;;;;;;4950462;28;20209;-70
2023/12/31 15:48:18;;;;;;;2.50;2.30;;;7.90;99.90;;;;;;4938980;28;20261;-70
2023/12/31 15:50:46;;;;;;;2.65;2.42;;;7.90;99.90;;;;;;4943289;28;20225;-71
2023/12/31 15:53:13;;;;;;;3.42;2.42;;;7.80;99.90;;;;;;4936524;29;20232;-70
2023/12/31 15:55:40;;;;;;;3.90;3.70;;;7.80;99.90;;;;;;4941885;28;20213;-72
2023/12/31 15:58:06;;;;;;;2.40;2.33;;;7.80;99.90;;;;;;4944463;28;20198;-71
2023/12/31 16:00:33;;;;;;;2.95;2.75;;;7.90;99.90;;;;;;4946940;28;20232;-72
2023/12/31 16:03:00;;;;;;;3.28;3.08;;;7.90;99.90;;;;;;4946684;28;20210;-69
2023/12/31 16:05:27;;;;;;;2.25;2.15;;;7.90;99.90;;;;;;4955325;28;20202;-70
2023/12/31 16:07:55;;;;;;;2.05;1.60;;;7.80;99.90;;;;;;4940240;29;20238;-69
2023/12/31 16:10:22;;;;;;;2.58;2.40;;;7.80;99.90;;;;;;4949710;28;20212;-70
2023/12/31 16:12:49;;;;;;;4.05;3.60;;;7.80;99.90;;;;;;4940234;28;20233;-73
2023/12/31 16:15:16;;;;;;;2.28;2.15;;;7.90;99.90;;;;;;4943191;28;20210;-69
2023/12/31 16:17:43;;;;;;;3.20;2.90;;;7.90;99.90;;;;;;4944628;29;20301;-69
2023/12/31 16:20:11;;;;;;;3.38;3.17;;;7.90;99.90;;;;;;4941106;28;20212;-69
2023/12/31 16:22:38;;;;;;;2.60;2.40;;;7.90;99.90;;;;;;4944207;28;20253;-73
2023/12/31 16:25:07;;;;;;;4.18;3.80;;;7.90;99.90;;;;;;4952798;29;20668;-72
2023/12/31 16:27:33;;;;;;;6.22;3.65;;;8.00;99.90;;;;;;4951470;28;20221;-70
2023/12/31 16:30:00;;;;;;;2.65;2.55;;;8.00;99.90;;;;;;4947094;28;20695;-71
2023/12/31 16:32:27;;;;;;;3.90;3.35;;;8.00;99.90;;;;;;4943226;28;20664;-70
2023/12/31 16:34:54;;;;;;;3.97;3.22;;;8.00;99.90;;;;;;4952681;28;20868;-71
2023/12/31 16:37:20;;;;;;;6.32;3.53;;;7.90;99.90;;;;;;4954704;28;20601;-71
2023/12/31 16:39:47;;;;;;;4.18;3.80;;;7.90;99.90;;;;;;4942061;28;20205;-71
2023/12/31 16:42:15;;;;;;;2.30;2.20;;;7.90;99.90;;;;;;4943350;28;20728;-70
2023/12/31 16:44:42;;;;;;;3.13;2.20;;;7.90;99.90;;;;;;4949039;28;20224;-70
2023/12/31 16:47:09;;;;;;;5.85;3.00;;;7.90;99.90;;;;;;4948715;28;20221;-73
2023/12/31 16:49:35;;;;;;;5.15;4.75;;;7.90;99.90;;;;;;4948518;29;20248;-71
2023/12/31 16:52:02;;;;;;;7.60;3.45;;;7.90;99.90;;;;;;4942350;28;20241;-68
2023/12/31 16:54:29;;;;;;;3.40;3.15;;;7.90;99.90;;;;;;4942194;28;20214;-68
2023/12/31 16:56:56;;;;;;;8.90;5.22;;;7.90;99.90;;;;;;4943765;28;20205;-68
2023/12/31 16:59:24;;;;;;;4.32;3.92;;;7.80;99.90;;;;;;4954769;28;20216;-69
2023/12/31 17:01:51;;;;;;;4.50;4.20;;;7.80;99.90;;;;;;4941701;28;20241;-68
2023/12/31 17:04:18;;;;;;;5.20;4.53;;;7.80;99.90;;;;;;4944997;29;20232;-71
2023/12/31 17:06:44;;;;;;;6.18;5.47;;;7.70;99.90;;;;;;4952943;28;20212;-70
2023/12/31 17:09:11;;;;;;;8.00;6.93;;;7.70;99.90;;;;;;4945460;28;20241;-71
2023/12/31 17:11:43;;;;;;;5.68;4.80;;;7.70;99.90;;;;;;4946594;28;20236;-70
2023/12/31 17:14:09;;;;;;;6.57;4.40;;;7.70;99.90;;;;;;4945743;28;20563;-73
2023/12/31 17:16:38;;;;;;;11.15;6.97;;;7.60;99.90;;;;;;4947120;28;20217;-70
2023/12/31 17:19:07;;;;;;;17.88;9.55;;;7.60;99.90;;;;;;4951704;28;20300;-70
2023/12/31 17:21:34;;;;;;;10.40;7.28;;;7.60;99.90;;;;;;4952706;28;20233;-71
2023/12/31 17:24:01;;;;;;;27.70;18.27;;;7.60;99.90;;;;;;4947218;28;20221;-70
2023/12/31 17:26:28;;;;;;;35.45;18.45;;;7.60;99.90;;;;;;4948498;28;20213;-70
2023/12/31 17:28:54;;;;;;;24.23;14.25;;;7.60;99.90;;;;;;4942143;29;20281;-70
2023/12/31 17:31:21;;;;;;;11.68;7.70;;;7.60;99.90;;;;;;4946100;28;20237;-72
2023/12/31 17:33:49;;;;;;;18.83;8.85;;;7.60;99.90;;;;;;4938577;29;20210;-71
2023/12/31 17:36:16;;;;;;;12.63;9.20;;;7.60;99.90;;;;;;4950155;29;20209;-70
2023/12/31 17:38:43;;;;;;;14.45;12.93;;;7.60;99.90;;;;;;4953115;28;20206;-70
2023/12/31 17:41:10;;;;;;;20.98;16.25;;;7.60;99.90;;;;;;4952132;28;20297;-71
2023/12/31 17:43:36;;;;;;;7.00;6.40;;;7.60;99.90;;;;;;4944671;29;20211;-71
2023/12/31 17:46:03;;;;;;;10.98;9.70;;;7.60;99.90;;;;;;4945230;28;20573;-70
2023/12/31 17:48:30;;;;;;;3.80;3.40;;;7.70;99.90;;;;;;4951014;28;20690;-70
2023/12/31 17:51:00;;;;;;;7.38;5.78;;;7.70;99.90;;;;;;4949250;28;20251;-71
2023/12/31 17:53:27;;;;;;;6.05;5.47;;;7.80;99.90;;;;;;4941229;29;20295;-70
2023/12/31 17:55:53;;;;;;;8.05;5.30;;;7.80;99.90;;;;;;4948201;28;20209;-70
2023/12/31 17:58:23;;;;;;;5.35;4.78;;;7.80;99.90;;;;;;4941297;28;20201;-70